Time;durP1;ratioP1;P1;durP2;ratioP2;P2;SDS_P1;SDS_P2;PMS_P1;PMS_P2;Temp;Humidity;BMP_temperature;BMP_pressure;BME280_temperature;BME280_humidity;BME280_pressure;Samples;Min_cycle;Max_cycle;Signal;HPM_P1;HPM_P2
2022/04/08 00:01:06;;;;;;;9.25;1.50;;;6.00;99.90;;;;;;4992002;28;20045;-49
2022/04/08 00:03:32;;;;;;;9.00;1.45;;;5.90;99.90;;;;;;4993621;28;20849;-49
2022/04/08 00:05:58;;;;;;;8.60;1.60;;;5.90;99.90;;;;;;4993764;28;20038;-47
2022/04/08 00:08:24;;;;;;;5.45;1.25;;;5.60;99.90;;;;;;4993790;28;20068;-48
2022/04/08 00:10:50;;;;;;;6.43;1.23;;;5.60;99.90;;;;;;4993448;28;20035;-51
2022/04/08 00:13:17;;;;;;;6.57;1.23;;;5.30;99.90;;;;;;4993756;28;20048;-48
2022/04/08 00:15:43;;;;;;;7.15;1.25;;;5.20;99.90;;;;;;4976047;28;20042;-53
2022/04/08 00:18:08;;;;;;;2.80;0.80;;;5.10;99.90;;;;;;4993706;28;20116;-49
2022/04/08 00:20:34;;;;;;;6.95;0.90;;;5.00;99.90;;;;;;4993486;28;20144;-49
2022/04/08 00:23:02;;;;;;;3.75;0.90;;;4.80;99.90;;;;;;4993609;28;20050;-50
2022/04/08 00:25:28;;;;;;;4.38;1.00;;;4.50;99.90;;;;;;4993574;28;20157;-53
2022/04/08 00:27:54;;;;;;;3.42;0.80;;;4.30;99.90;;;;;;4993488;28;20466;-49
2022/04/08 00:30:19;;;;;;;5.32;0.90;;;4.30;99.90;;;;;;4993608;28;20473;-51
2022/04/08 00:32:45;;;;;;;6.97;0.90;;;4.30;99.90;;;;;;4993587;28;20034;-49
2022/04/08 00:35:10;;;;;;;5.57;0.93;;;4.00;99.90;;;;;;4992983;28;20564;-48
2022/04/08 00:37:36;;;;;;;4.82;0.80;;;4.10;99.90;;;;;;4993581;28;20465;-51
2022/04/08 00:40:03;;;;;;;9.95;0.98;;;4.10;99.90;;;;;;4992745;28;20103;-52
2022/04/08 00:42:29;;;;;;;6.13;1.00;;;4.10;99.90;;;;;;4992885;28;20050;-50
2022/04/08 00:44:54;;;;;;;4.53;0.80;;;4.40;99.90;;;;;;4992753;28;20117;-53
2022/04/08 00:47:20;;;;;;;7.65;0.98;;;4.60;99.90;;;;;;4993163;28;20052;-50
2022/04/08 00:49:46;;;;;;;6.47;1.00;;;4.20;99.90;;;;;;4993114;28;20069;-52
2022/04/08 00:52:12;;;;;;;6.18;0.90;;;4.40;99.90;;;;;;4993089;28;20042;-52
2022/04/08 00:54:40;;;;;;;5.07;1.33;;;4.30;99.90;;;;;;4993232;28;20108;-51
2022/04/08 00:57:06;;;;;;;7.78;0.95;;;4.30;99.90;;;;;;4990824;28;20117;-52
2022/04/08 00:59:32;;;;;;;7.90;1.40;;;4.20;99.90;;;;;;4992633;28;20133;-50
2022/04/08 01:01:58;;;;;;;10.70;1.40;;;4.70;99.90;;;;;;4993034;28;20038;-50
2022/04/08 01:04:26;;;;;;;7.90;1.77;;;4.30;99.90;;;;;;4993010;28;20077;-51
2022/04/08 01:06:52;;;;;;;10.82;1.77;;;4.40;99.90;;;;;;4991516;28;20039;-50
2022/04/08 01:09:18;;;;;;;11.15;1.83;;;4.20;99.90;;;;;;4993185;28;20042;-50
2022/04/08 01:11:44;;;;;;;13.10;2.00;;;4.50;99.90;;;;;;4991572;28;20046;-51
2022/04/08 01:14:11;;;;;;;12.55;1.73;;;4.60;99.90;;;;;;4992363;28;20037;-50
2022/04/08 01:16:37;;;;;;;8.40;1.60;;;4.40;99.90;;;;;;4992587;28;20034;-48
2022/04/08 01:19:03;;;;;;;14.25;1.73;;;4.40;99.90;;;;;;4992642;28;20038;-54
2022/04/08 01:21:31;;;;;;;12.90;1.60;;;4.60;99.90;;;;;;4992590;28;20076;-51
2022/04/08 01:23:58;;;;;;;9.25;1.50;;;4.30;99.90;;;;;;4974943;28;20053;-50
2022/04/08 01:26:24;;;;;;;11.60;1.83;;;4.60;99.90;;;;;;4974682;28;20176;-49
2022/04/08 01:28:51;;;;;;;19.13;1.98;;;4.60;99.90;;;;;;4992426;28;20034;-49
2022/04/08 01:31:18;;;;;;;13.77;2.00;;;4.50;99.90;;;;;;4990594;28;20034;-50
2022/04/08 01:33:44;;;;;;;14.75;1.73;;;4.80;99.90;;;;;;4990746;28;20040;-50
2022/04/08 01:36:10;;;;;;;15.48;1.85;;;4.40;99.90;;;;;;4992011;28;20125;-47
2022/04/08 01:38:35;;;;;;;10.45;1.75;;;4.50;99.90;;;;;;4991971;28;20038;-48
2022/04/08 01:41:02;;;;;;;11.77;1.90;;;4.80;99.90;;;;;;4991449;28;20049;-48
2022/04/08 01:43:27;;;;;;;15.13;1.88;;;4.90;99.90;;;;;;4991990;28;20053;-48
2022/04/08 01:45:53;;;;;;;9.65;1.75;;;4.70;99.90;;;;;;5009398;28;20058;-48
2022/04/08 01:48:19;;;;;;;16.05;1.92;;;5.00;99.90;;;;;;5011071;28;20034;-52
2022/04/08 01:50:45;;;;;;;11.00;2.05;;;4.70;99.90;;;;;;5011424;28;20096;-48
2022/04/08 01:53:13;;;;;;;13.93;2.03;;;4.90;99.90;;;;;;5011560;28;20044;-51
2022/04/08 01:55:39;;;;;;;14.02;1.83;;;4.50;99.90;;;;;;5010661;28;20111;-53
2022/04/08 01:58:05;;;;;;;16.08;2.03;;;4.70;99.90;;;;;;5011551;28;20469;-48
2022/04/08 02:00:32;;;;;;;16.65;1.85;;;4.70;99.90;;;;;;5011280;28;20050;-52
2022/04/08 02:02:58;;;;;;;13.43;1.70;;;4.40;99.90;;;;;;5011135;28;20470;-51
2022/04/08 02:05:24;;;;;;;12.50;2.38;;;4.40;99.90;;;;;;5010447;28;20081;-50
2022/04/08 02:07:53;;;;;;;11.48;1.90;;;4.60;99.90;;;;;;5011247;28;20564;-50
2022/04/08 02:10:19;;;;;;;11.98;2.30;;;4.70;99.90;;;;;;5003656;28;20126;-51
2022/04/08 02:12:44;;;;;;;19.50;2.10;;;4.70;99.90;;;;;;5011198;28;20120;-51
2022/04/08 02:15:10;;;;;;;14.40;2.28;;;4.50;99.90;;;;;;5011198;28;20037;-52
2022/04/08 02:17:36;;;;;;;15.15;1.75;;;4.40;99.90;;;;;;5011189;28;20441;-51
2022/04/08 02:20:04;;;;;;;11.68;1.50;;;4.70;99.90;;;;;;5010987;28;20092;-49
2022/04/08 02:22:31;;;;;;;17.42;2.13;;;4.40;99.90;;;;;;5006055;28;20056;-50
2022/04/08 02:24:58;;;;;;;13.15;2.10;;;4.50;99.90;;;;;;5000374;28;20053;-49
2022/04/08 02:27:26;;;;;;;15.57;1.85;;;4.60;99.90;;;;;;5002826;28;20382;-48
2022/04/08 02:29:52;;;;;;;16.27;2.72;;;4.50;99.90;;;;;;5002401;28;20045;-48
2022/04/08 02:32:18;;;;;;;14.43;2.28;;;4.50;99.90;;;;;;5001865;28;20042;-50
2022/04/08 02:34:44;;;;;;;13.35;2.03;;;4.50;99.90;;;;;;5002116;28;20432;-47
2022/04/08 02:37:09;;;;;;;15.63;2.30;;;4.60;99.90;;;;;;5003038;28;20042;-50
2022/04/08 02:39:35;;;;;;;15.77;2.20;;;4.70;99.90;;;;;;5001456;28;20034;-49
2022/04/08 02:42:01;;;;;;;10.25;1.52;;;4.60;99.90;;;;;;5001565;28;20725;-49
2022/04/08 02:44:26;;;;;;;12.52;2.08;;;4.70;99.90;;;;;;5001370;28;20091;-50
2022/04/08 02:46:52;;;;;;;15.95;1.92;;;4.60;99.90;;;;;;5001155;28;20474;-50
2022/04/08 02:49:18;;;;;;;16.92;2.00;;;4.60;99.90;;;;;;5002098;28;20069;-51
2022/04/08 02:51:43;;;;;;;14.68;1.90;;;4.50;99.90;;;;;;5001858;28;20064;-49
2022/04/08 02:54:11;;;;;;;15.00;1.90;;;4.50;99.90;;;;;;5001778;28;20121;-52
2022/04/08 02:56:40;;;;;;;13.88;2.30;;;4.40;99.90;;;;;;5001517;28;20470;-51
2022/04/08 02:59:06;;;;;;;15.48;2.33;;;4.40;99.90;;;;;;5008054;28;20038;-52
2022/04/08 03:01:32;;;;;;;10.43;2.13;;;4.60;99.90;;;;;;5008458;28;20048;-53
2022/04/08 03:03:57;;;;;;;14.07;2.20;;;4.50;99.90;;;;;;4991272;28;20108;-50
2022/04/08 03:06:23;;;;;;;13.05;2.10;;;4.60;99.90;;;;;;5010070;28;20044;-48
2022/04/08 03:08:49;;;;;;;15.60;2.53;;;4.70;99.90;;;;;;5010182;28;20042;-47
2022/04/08 03:11:14;;;;;;;17.70;2.17;;;4.70;99.90;;;;;;5009540;28;20040;-48
2022/04/08 03:13:40;;;;;;;18.83;2.50;;;4.80;99.90;;;;;;5010593;28;20036;-51
2022/04/08 03:16:06;;;;;;;17.52;3.55;;;4.80;99.90;;;;;;5010270;28;20042;-51
2022/04/08 03:18:31;;;;;;;16.83;2.22;;;4.90;99.90;;;;;;5010113;28;20073;-46
2022/04/08 03:20:57;;;;;;;18.50;2.65;;;4.90;99.90;;;;;;5010313;28;20065;-50
2022/04/08 03:23:23;;;;;;;15.60;1.85;;;4.90;99.90;;;;;;5010401;28;20034;-51
2022/04/08 03:25:48;;;;;;;17.80;2.67;;;4.90;99.90;;;;;;5009943;28;20149;-52
2022/04/08 03:28:14;;;;;;;11.95;2.22;;;4.90;99.90;;;;;;5010483;28;20518;-51
2022/04/08 03:30:40;;;;;;;12.82;2.08;;;4.90;99.90;;;;;;5010323;28;20465;-50
2022/04/08 03:33:06;;;;;;;12.60;2.00;;;4.80;99.90;;;;;;5010089;28;20462;-51
2022/04/08 03:35:32;;;;;;;13.90;2.28;;;4.80;99.90;;;;;;5011083;28;20030;-51
2022/04/08 03:37:58;;;;;;;13.80;1.90;;;4.70;99.90;;;;;;5014070;28;20417;-51
2022/04/08 03:40:23;;;;;;;11.60;1.90;;;4.80;99.90;;;;;;5013680;28;20512;-50
2022/04/08 03:42:49;;;;;;;8.52;1.85;;;4.70;99.90;;;;;;5013705;28;20041;-47
2022/04/08 03:45:15;;;;;;;7.45;1.55;;;4.70;99.90;;;;;;5013628;28;20058;-53
2022/04/08 03:47:40;;;;;;;7.80;1.63;;;4.60;99.90;;;;;;5013322;28;20052;-52
2022/04/08 03:50:07;;;;;;;11.65;1.70;;;4.50;99.90;;;;;;5013355;28;20088;-48
2022/04/08 03:52:32;;;;;;;8.10;1.75;;;4.50;99.90;;;;;;5013715;28;20038;-48
2022/04/08 03:55:00;;;;;;;12.32;2.25;;;4.40;99.90;;;;;;5012929;28;20104;-50
2022/04/08 03:57:26;;;;;;;10.82;1.90;;;4.50;99.90;;;;;;5013145;28;20644;-50
2022/04/08 03:59:52;;;;;;;8.52;1.65;;;4.50;99.90;;;;;;5013047;28;20132;-49
2022/04/08 04:02:18;;;;;;;4.60;1.17;;;4.40;99.90;;;;;;5013101;28;20112;-48
2022/04/08 04:04:43;;;;;;;5.45;1.40;;;4.30;99.90;;;;;;5013370;28;20045;-49
2022/04/08 04:07:09;;;;;;;9.45;2.00;;;4.30;99.90;;;;;;5013415;28;20044;-48
2022/04/08 04:09:35;;;;;;;6.10;1.25;;;4.40;99.90;;;;;;5011557;28;20038;-51
2022/04/08 04:12:00;;;;;;;6.93;1.48;;;4.30;99.90;;;;;;5013146;28;20046;-47
2022/04/08 04:14:26;;;;;;;12.05;1.38;;;4.40;99.90;;;;;;5013472;28;20070;-49
2022/04/08 04:16:52;;;;;;;5.32;1.48;;;4.50;99.90;;;;;;5013292;28;20048;-48
2022/04/08 04:19:18;;;;;;;10.00;1.65;;;4.60;99.90;;;;;;5012889;28;20072;-49
2022/04/08 04:21:44;;;;;;;8.77;1.67;;;4.60;99.90;;;;;;5013003;28;20370;-47
2022/04/08 04:24:10;;;;;;;9.32;1.50;;;4.50;99.90;;;;;;5011360;28;20044;-48
2022/04/08 04:26:35;;;;;;;12.35;1.83;;;4.50;99.90;;;;;;5012811;28;20128;-48
2022/04/08 04:29:01;;;;;;;9.23;1.60;;;4.50;99.90;;;;;;5012574;28;20050;-49
2022/04/08 04:31:27;;;;;;;8.38;1.60;;;4.50;99.90;;;;;;5012077;28;20056;-51
2022/04/08 04:33:53;;;;;;;10.70;2.00;;;4.60;99.90;;;;;;5012582;28;20124;-48
2022/04/08 04:36:18;;;;;;;10.30;1.40;;;4.60;99.90;;;;;;5012380;28;20034;-48
2022/04/08 04:38:44;;;;;;;10.70;1.83;;;4.50;99.90;;;;;;5012344;28;20045;-46
2022/04/08 04:41:10;;;;;;;6.25;1.42;;;4.60;99.90;;;;;;5012056;28;20038;-48
2022/04/08 04:43:36;;;;;;;9.25;1.83;;;4.70;99.90;;;;;;5012248;28;20156;-47
2022/04/08 04:46:03;;;;;;;9.00;1.83;;;4.70;99.90;;;;;;5011776;28;20057;-49
2022/04/08 04:48:30;;;;;;;10.15;1.88;;;4.70;99.90;;;;;;5009678;28;20045;-51
2022/04/08 04:50:56;;;;;;;11.95;2.35;;;4.70;99.90;;;;;;5012053;28;20045;-47
2022/04/08 04:53:23;;;;;;;15.82;2.03;;;4.70;99.90;;;;;;4993788;28;20512;-51
2022/04/08 04:55:49;;;;;;;12.60;2.05;;;4.80;99.90;;;;;;5011201;28;20071;-49
2022/04/08 04:58:14;;;;;;;14.48;2.10;;;4.70;99.90;;;;;;5012253;28;20440;-50
2022/04/08 05:00:40;;;;;;;8.68;2.17;;;4.70;99.90;;;;;;5012402;28;20410;-48
2022/04/08 05:03:08;;;;;;;12.25;2.33;;;4.70;99.90;;;;;;5011536;28;20034;-50
2022/04/08 05:05:34;;;;;;;13.85;2.05;;;4.70;99.90;;;;;;5011871;28;20034;-49
2022/04/08 05:08:09;;;;;;;11.15;2.30;;;4.70;99.90;;;;;;5011646;28;20034;-47
2022/04/08 05:10:35;;;;;;;17.77;4.72;;;4.80;99.90;;;;;;5011481;28;20428;-50
2022/04/08 05:13:00;;;;;;;16.83;4.97;;;4.70;99.90;;;;;;5011788;28;20416;-49
2022/04/08 05:15:27;;;;;;;16.10;3.40;;;4.70;99.90;;;;;;5011723;28;20042;-51
2022/04/08 05:17:54;;;;;;;13.23;2.90;;;4.70;99.90;;;;;;5011616;28;20489;-48
2022/04/08 05:20:20;;;;;;;9.02;2.47;;;4.60;99.90;;;;;;5011857;28;20049;-50
2022/04/08 05:22:45;;;;;;;11.73;3.00;;;4.60;99.90;;;;;;5011791;28;20389;-47
2022/04/08 05:25:11;;;;;;;9.13;3.38;;;4.70;99.90;;;;;;5012015;28;20045;-48
2022/04/08 05:27:39;;;;;;;9.38;2.30;;;4.60;99.90;;;;;;5011788;28;20034;-47
2022/04/08 05:30:09;;;;;;;6.25;1.33;;;4.60;99.90;;;;;;5011936;28;20034;-47
2022/04/08 05:32:35;;;;;;;4.88;1.13;;;4.30;99.90;;;;;;4993877;28;20446;-48
2022/04/08 05:35:01;;;;;;;3.28;0.90;;;3.90;99.90;;;;;;5011638;28;20117;-47
2022/04/08 05:37:28;;;;;;;7.07;1.13;;;3.90;99.90;;;;;;5011926;28;20038;-47
2022/04/08 05:39:55;;;;;;;6.30;1.15;;;3.50;99.90;;;;;;5011820;28;20473;-48
2022/04/08 05:42:21;;;;;;;4.53;1.15;;;3.20;99.90;;;;;;5011013;28;20119;-48
2022/04/08 05:44:47;;;;;;;6.78;1.38;;;3.20;99.90;;;;;;5011427;28;20206;-47
2022/04/08 05:47:13;;;;;;;4.47;1.48;;;3.20;99.90;;;;;;5011392;28;20501;-47
2022/04/08 05:49:38;;;;;;;5.50;1.50;;;3.10;99.90;;;;;;4993503;28;20096;-48
2022/04/08 05:52:04;;;;;;;6.35;1.60;;;3.20;99.90;;;;;;5010190;28;20037;-47
2022/04/08 05:54:30;;;;;;;5.20;1.52;;;3.10;99.90;;;;;;5011451;28;20034;-46
2022/04/08 05:57:00;;;;;;;5.00;1.70;;;3.00;99.90;;;;;;5011624;28;20394;-48
2022/04/08 05:59:27;;;;;;;7.80;1.90;;;2.90;99.90;;;;;;5010937;28;20504;-48
2022/04/08 06:01:53;;;;;;;5.95;2.20;;;2.80;99.90;;;;;;5011017;28;20049;-48
2022/04/08 06:04:19;;;;;;;4.57;1.83;;;2.60;99.90;;;;;;5011312;28;20389;-50
2022/04/08 06:06:44;;;;;;;3.88;1.65;;;2.80;99.90;;;;;;5011000;28;20026;-48
2022/04/08 06:09:10;;;;;;;4.72;1.70;;;2.60;99.90;;;;;;5010757;28;20046;-51
2022/04/08 06:11:37;;;;;;;4.95;1.73;;;2.90;99.90;;;;;;5010813;28;20060;-47
2022/04/08 06:14:03;;;;;;;5.28;1.70;;;2.80;99.90;;;;;;5011127;28;20033;-47
2022/04/08 06:16:29;;;;;;;7.25;1.92;;;2.80;99.90;;;;;;5011184;28;20038;-48
2022/04/08 06:18:55;;;;;;;4.13;1.95;;;2.80;99.90;;;;;;5010861;28;20064;-49
2022/04/08 06:21:22;;;;;;;3.55;1.80;;;3.00;99.90;;;;;;5010635;28;20053;-49
2022/04/08 06:23:49;;;;;;;7.18;2.10;;;2.70;99.90;;;;;;5010937;28;20050;-49
2022/04/08 06:26:15;;;;;;;7.82;2.13;;;2.80;99.90;;;;;;5009843;28;20427;-46
2022/04/08 06:28:41;;;;;;;5.00;2.00;;;3.20;99.90;;;;;;5010714;28;20121;-49
2022/04/08 06:31:07;;;;;;;5.43;1.67;;;2.80;99.90;;;;;;5011083;28;20037;-48
2022/04/08 06:33:33;;;;;;;8.88;2.28;;;2.70;99.90;;;;;;5010461;28;20045;-49
2022/04/08 06:36:00;;;;;;;5.93;2.40;;;3.00;99.90;;;;;;5011011;28;20040;-48
2022/04/08 06:38:25;;;;;;;6.18;1.88;;;3.10;99.90;;;;;;5010826;28;20477;-47
2022/04/08 06:40:51;;;;;;;10.35;2.38;;;3.10;99.90;;;;;;5010110;28;20130;-49
2022/04/08 06:43:17;;;;;;;8.07;2.55;;;2.90;99.90;;;;;;5010944;28;20049;-47
2022/04/08 06:45:42;;;;;;;10.52;2.72;;;3.10;99.90;;;;;;5010117;28;20133;-49
2022/04/08 06:48:09;;;;;;;6.68;2.50;;;3.10;99.90;;;;;;5010757;28;20045;-48
2022/04/08 06:50:35;;;;;;;6.88;2.50;;;3.40;99.90;;;;;;5010817;28;20057;-50
2022/04/08 06:53:01;;;;;;;9.35;2.60;;;3.10;99.90;;;;;;5010342;28;20034;-48
2022/04/08 06:55:28;;;;;;;6.43;2.60;;;3.40;99.90;;;;;;5010179;28;20038;-50
2022/04/08 06:57:53;;;;;;;6.95;2.88;;;3.50;99.90;;;;;;5010645;28;20046;-47
2022/04/08 07:00:21;;;;;;;9.82;4.20;;;3.50;99.90;;;;;;5010274;28;20660;-47
2022/04/08 07:02:46;;;;;;;18.90;7.32;;;3.40;99.90;;;;;;4992716;28;20087;-47
2022/04/08 07:05:12;;;;;;;11.65;5.80;;;3.80;99.90;;;;;;4992133;28;20451;-46
2022/04/08 07:07:39;;;;;;;7.90;4.00;;;3.60;99.90;;;;;;5010290;28;20048;-47
2022/04/08 07:10:06;;;;;;;9.45;4.00;;;3.70;99.90;;;;;;4992259;28;20045;-48
2022/04/08 07:12:32;;;;;;;10.25;3.20;;;3.60;99.90;;;;;;5013793;28;20041;-49
2022/04/08 07:14:58;;;;;;;7.95;3.28;;;4.00;99.90;;;;;;5014427;28;20091;-49
2022/04/08 07:17:33;;;;;;;6.15;3.00;;;4.00;99.90;;;;;;5014518;28;20109;-49
2022/04/08 07:19:59;;;;;;;9.30;3.13;;;4.20;99.90;;;;;;5014258;28;20432;-46
2022/04/08 07:22:25;;;;;;;9.88;2.88;;;3.90;99.90;;;;;;5014328;28;20077;-49
2022/04/08 07:24:51;;;;;;;9.05;3.05;;;4.10;99.90;;;;;;5014212;28;20077;-48
2022/04/08 07:27:18;;;;;;;7.20;2.60;;;4.10;99.90;;;;;;5014307;28;20432;-49
2022/04/08 07:29:45;;;;;;;5.00;2.80;;;4.50;99.90;;;;;;5013049;28;20482;-51
2022/04/08 07:32:11;;;;;;;8.32;3.00;;;4.30;99.90;;;;;;4995149;28;20736;-52
2022/04/08 07:34:37;;;;;;;7.63;2.70;;;4.60;99.90;;;;;;5013788;28;20335;-52
2022/04/08 07:37:04;;;;;;;6.07;3.13;;;4.70;99.90;;;;;;5011589;28;20045;-51
2022/04/08 07:39:30;;;;;;;6.68;3.20;;;4.60;99.90;;;;;;5013897;28;20042;-52
2022/04/08 07:41:57;;;;;;;6.80;2.80;;;5.00;99.90;;;;;;5006399;28;20050;-51
2022/04/08 07:44:22;;;;;;;7.10;2.92;;;4.90;99.90;;;;;;5001845;28;20307;-49
2022/04/08 07:46:48;;;;;;;7.20;3.13;;;5.00;99.90;;;;;;5004231;28;20038;-47
2022/04/08 07:49:14;;;;;;;5.95;3.53;;;5.10;99.90;;;;;;4982001;28;20077;-46
2022/04/08 07:51:41;;;;;;;10.95;4.15;;;5.20;99.90;;;;;;5004406;28;20457;-49
2022/04/08 07:54:08;;;;;;;11.05;3.70;;;5.10;99.90;;;;;;5005432;28;20066;-49
2022/04/08 07:56:35;;;;;;;8.57;4.00;;;5.20;99.90;;;;;;4965040;28;20041;-46
2022/04/08 07:59:02;;;;;;;12.35;4.18;;;5.40;99.90;;;;;;5004524;28;20453;-47
2022/04/08 08:01:28;;;;;;;12.82;4.78;;;5.60;99.90;;;;;;5004906;28;20493;-47
2022/04/08 08:03:54;;;;;;;14.75;5.18;;;5.50;99.90;;;;;;5003641;28;20115;-48
2022/04/08 08:06:20;;;;;;;14.65;5.32;;;5.50;99.90;;;;;;5004023;28;20049;-49
2022/04/08 08:08:46;;;;;;;14.48;5.28;;;5.50;99.90;;;;;;5004288;28;20037;-47
2022/04/08 08:11:13;;;;;;;15.13;4.93;;;5.70;99.90;;;;;;5009923;28;20040;-49
2022/04/08 08:13:39;;;;;;;17.45;5.10;;;5.90;99.90;;;;;;5008800;28;20130;-51
2022/04/08 08:16:07;;;;;;;14.40;5.00;;;5.70;99.90;;;;;;5006587;28;20121;-51
2022/04/08 08:18:34;;;;;;;18.55;5.43;;;6.00;99.90;;;;;;5011271;28;20040;-50
2022/04/08 08:20:59;;;;;;;17.38;5.03;;;5.90;99.90;;;;;;5007671;28;20156;-46
2022/04/08 08:23:25;;;;;;;16.70;4.47;;;6.00;99.90;;;;;;4986939;28;20144;-51
2022/04/08 08:25:51;;;;;;;14.90;4.78;;;6.00;99.90;;;;;;4988942;28;20045;-52
2022/04/08 08:28:16;;;;;;;10.35;4.47;;;6.10;99.90;;;;;;5010016;28;20509;-48
2022/04/08 08:30:44;;;;;;;14.88;4.88;;;6.20;99.90;;;;;;5009400;28;20052;-50
2022/04/08 08:33:10;;;;;;;13.80;3.80;;;6.20;99.90;;;;;;5009223;28;20148;-49
2022/04/08 08:35:36;;;;;;;12.88;3.90;;;6.20;99.90;;;;;;5005279;28;20246;-48
2022/04/08 08:38:03;;;;;;;11.38;3.60;;;6.30;99.90;;;;;;5008791;28;20401;-47
2022/04/08 08:40:33;;;;;;;14.00;3.65;;;6.40;99.90;;;;;;5009857;28;20064;-50
2022/04/08 08:43:00;;;;;;;13.05;3.40;;;6.60;99.90;;;;;;5006773;28;20041;-47
2022/04/08 08:45:32;;;;;;;13.27;2.88;;;6.80;99.90;;;;;;5005197;28;20524;-50
2022/04/08 08:48:04;;;;;;;14.85;3.83;;;6.80;99.90;;;;;;5006572;28;20034;-47
2022/04/08 08:50:30;;;;;;;16.00;3.63;;;7.20;99.90;;;;;;5013275;28;20045;-47
2022/04/08 08:52:57;;;;;;;18.27;3.50;;;7.30;99.90;;;;;;5005724;28;20517;-48
2022/04/08 08:55:24;;;;;;;14.00;2.90;;;7.50;99.90;;;;;;5008957;28;20116;-48
2022/04/08 08:57:52;;;;;;;11.73;2.47;;;7.50;99.90;;;;;;5008296;28;20034;-46
2022/04/08 09:00:19;;;;;;;15.00;2.40;;;7.60;99.90;;;;;;5006954;28;20465;-48
2022/04/08 09:02:49;;;;;;;14.23;2.53;;;7.60;99.90;;;;;;5009438;28;20109;-47
2022/04/08 09:05:19;;;;;;;13.93;2.33;;;7.70;99.90;;;;;;5009974;28;20048;-50
2022/04/08 09:07:59;;;;;;;9.23;2.55;;;7.80;99.90;;;;;;5010070;28;20053;-47
2022/04/08 09:10:33;;;;;;;7.30;2.25;;;8.00;99.90;;;;;;5007931;28;20121;-49
2022/04/08 09:13:00;;;;;;;13.25;2.75;;;8.00;99.90;;;;;;5010509;28;20037;-50
2022/04/08 09:15:26;;;;;;;11.27;2.38;;;8.30;99.90;;;;;;5009662;28;20042;-50
2022/04/08 09:17:52;;;;;;;7.95;2.25;;;8.30;99.90;;;;;;5003158;28;20048;-49
2022/04/08 09:20:19;;;;;;;10.45;1.95;;;8.50;99.90;;;;;;5003651;28;20050;-49
2022/04/08 09:22:56;;;;;;;6.78;1.92;;;8.50;99.90;;;;;;5004609;28;20048;-48
2022/04/08 09:25:26;;;;;;;8.32;1.90;;;8.60;99.90;;;;;;5007731;28;20050;-51
2022/04/08 09:27:55;;;;;;;9.23;2.35;;;8.50;99.90;;;;;;5007099;28;20107;-47
2022/04/08 09:30:21;;;;;;;9.82;2.25;;;8.20;99.90;;;;;;5011181;28;20045;-47
2022/04/08 09:32:47;;;;;;;11.43;1.92;;;8.20;99.90;;;;;;4992372;28;20165;-45
2022/04/08 09:35:18;;;;;;;8.60;1.73;;;8.10;99.90;;;;;;5010156;28;20069;-49
2022/04/08 09:37:59;;;;;;;12.98;2.15;;;8.10;99.90;;;;;;5009472;28;20389;-47
2022/04/08 09:40:25;;;;;;;12.70;2.90;;;8.20;99.90;;;;;;5009106;28;20034;-50
2022/04/08 09:42:52;;;;;;;12.40;2.17;;;8.70;99.90;;;;;;5009063;28;20053;-51
2022/04/08 09:45:31;;;;;;;10.60;1.92;;;8.70;99.90;;;;;;5007209;28;20069;-53
2022/04/08 09:48:05;;;;;;;10.70;1.80;;;8.80;99.90;;;;;;5008121;28;20050;-47
2022/04/08 09:50:31;;;;;;;8.50;1.58;;;8.70;99.90;;;;;;5009317;28;20050;-46
2022/04/08 09:52:57;;;;;;;10.38;1.60;;;8.90;99.90;;;;;;5009734;28;20053;-49
2022/04/08 09:55:25;;;;;;;12.10;1.90;;;8.70;99.90;;;;;;5010279;28;20064;-46
2022/04/08 09:58:02;;;;;;;10.40;2.00;;;8.80;99.90;;;;;;5010199;28;20045;-46
2022/04/08 10:00:28;;;;;;;16.13;1.80;;;9.10;99.90;;;;;;5004488;28;20045;-46
2022/04/08 10:02:56;;;;;;;5.55;1.73;;;9.00;99.90;;;;;;5010217;28;20378;-48
2022/04/08 10:05:23;;;;;;;11.35;1.95;;;8.80;99.90;;;;;;5011048;28;20111;-46
2022/04/08 10:07:52;;;;;;;13.52;2.30;;;8.90;99.90;;;;;;5006525;28;20080;-47
2022/04/08 10:10:23;;;;;;;10.35;1.60;;;9.10;99.90;;;;;;5004430;28;20057;-47
2022/04/08 10:13:21;;;;;;;8.68;2.00;;;9.10;99.90;;;;;;4991636;28;20081;-46
2022/04/08 10:16:04;;;;;;;9.43;1.75;;;9.10;99.90;;;;;;5006410;28;20034;-47
2022/04/08 10:18:36;;;;;;;9.45;1.92;;;9.00;99.90;;;;;;5007101;28;20083;-48
2022/04/08 10:21:02;;;;;;;6.65;1.45;;;9.10;99.90;;;;;;5008527;28;20042;-45
2022/04/08 10:23:37;;;;;;;9.27;2.03;;;9.30;99.90;;;;;;5006279;28;20083;-47
2022/04/08 10:26:04;;;;;;;10.38;1.90;;;9.20;99.90;;;;;;5011057;28;20495;-49
2022/04/08 10:28:37;;;;;;;7.40;1.77;;;9.20;99.90;;;;;;5011063;28;20042;-47
2022/04/08 10:31:35;;;;;;;10.35;2.05;;;9.20;99.90;;;;;;5010520;28;20053;-48
2022/04/08 10:34:02;;;;;;;9.18;1.67;;;9.20;99.90;;;;;;4966437;28;20050;-48
2022/04/08 10:36:31;;;;;;;10.80;1.75;;;9.20;99.90;;;;;;5010322;28;20042;-46
2022/04/08 10:39:12;;;;;;;10.40;2.17;;;9.10;99.90;;;;;;4992779;28;20054;-46
2022/04/08 10:41:51;;;;;;;8.68;1.88;;;8.80;99.90;;;;;;5009887;28;20284;-49
2022/04/08 10:44:30;;;;;;;10.30;2.40;;;8.60;99.90;;;;;;5010002;28;20092;-48
2022/04/08 10:46:59;;;;;;;16.02;2.17;;;8.60;99.90;;;;;;4991982;28;20633;-51
2022/04/08 10:49:25;;;;;;;14.35;2.28;;;8.80;99.90;;;;;;5009347;28;20096;-46
2022/04/08 10:51:50;;;;;;;9.60;2.28;;;8.90;99.90;;;;;;4997325;28;20481;-47
2022/04/08 10:54:17;;;;;;;10.18;2.42;;;8.90;99.90;;;;;;4999046;28;20046;-49
2022/04/08 10:56:43;;;;;;;8.95;1.80;;;8.90;99.90;;;;;;5000154;28;20037;-48
2022/04/08 10:59:09;;;;;;;6.93;1.90;;;8.90;99.90;;;;;;5002183;28;20042;-47
2022/04/08 11:01:46;;;;;;;9.95;1.75;;;8.90;99.90;;;;;;5002104;28;20029;-48
2022/04/08 11:04:12;;;;;;;7.15;1.30;;;8.90;99.90;;;;;;5001296;28;20085;-47
2022/04/08 11:06:38;;;;;;;12.90;1.95;;;8.90;99.90;;;;;;5001102;28;20454;-49
2022/04/08 11:09:14;;;;;;;8.48;2.10;;;9.30;99.90;;;;;;4999549;28;20048;-47
2022/04/08 11:11:42;;;;;;;8.93;1.90;;;9.40;99.90;;;;;;5000448;28;20038;-48
2022/04/08 11:14:08;;;;;;;10.35;1.70;;;9.30;99.90;;;;;;4983484;28;20037;-48
2022/04/08 11:16:38;;;;;;;10.65;1.92;;;9.20;99.90;;;;;;4997890;28;20022;-50
2022/04/08 11:19:05;;;;;;;10.95;2.30;;;9.20;99.90;;;;;;4999657;28;20038;-50
2022/04/08 11:21:34;;;;;;;11.13;1.85;;;9.20;99.90;;;;;;5001108;28;20649;-49
2022/04/08 11:24:04;;;;;;;12.35;2.10;;;9.00;99.90;;;;;;5002310;28;20038;-47
2022/04/08 11:26:40;;;;;;;8.07;1.95;;;8.90;99.90;;;;;;4999273;28;20489;-52
2022/04/08 11:29:15;;;;;;;8.93;1.75;;;8.70;99.90;;;;;;5001124;28;20541;-49
2022/04/08 11:31:41;;;;;;;10.27;1.73;;;8.80;99.90;;;;;;4999752;28;20078;-47
2022/04/08 11:34:07;;;;;;;9.32;1.90;;;8.40;99.90;;;;;;5000784;28;20042;-48
2022/04/08 11:36:34;;;;;;;9.10;1.90;;;8.20;99.90;;;;;;5001470;28;20037;-47
2022/04/08 11:39:00;;;;;;;7.65;2.28;;;8.00;99.90;;;;;;5001588;28;20022;-48
2022/04/08 11:41:28;;;;;;;8.63;1.73;;;8.10;99.90;;;;;;5002710;28;20097;-50
2022/04/08 11:43:54;;;;;;;13.73;2.55;;;7.90;99.90;;;;;;4983144;28;20042;-48
2022/04/08 11:46:19;;;;;;;10.13;2.20;;;7.90;99.90;;;;;;5000719;28;20381;-47
2022/04/08 11:48:45;;;;;;;12.43;2.47;;;7.90;99.90;;;;;;4998675;28;20045;-48
2022/04/08 11:51:12;;;;;;;10.52;2.50;;;8.20;99.90;;;;;;4996345;28;21915;-51
2022/04/08 11:53:45;;;;;;;14.25;2.92;;;8.10;99.90;;;;;;4998922;28;20061;-49
2022/04/08 11:56:18;;;;;;;10.75;2.90;;;8.10;99.90;;;;;;4997300;28;20042;-48
2022/04/08 11:58:54;;;;;;;10.32;2.50;;;8.10;99.90;;;;;;5001067;28;20091;-48
2022/04/08 12:01:20;;;;;;;10.52;2.25;;;8.10;99.90;;;;;;5003195;28;20042;-48
2022/04/08 12:03:48;;;;;;;9.50;1.98;;;8.10;99.90;;;;;;5010073;28;20044;-48
2022/04/08 12:06:13;;;;;;;10.88;2.47;;;8.00;99.90;;;;;;4998061;28;20110;-46
2022/04/08 12:08:39;;;;;;;13.68;2.30;;;8.10;99.90;;;;;;5013154;28;20153;-46
2022/04/08 12:11:09;;;;;;;14.52;2.85;;;7.90;99.90;;;;;;5010377;28;20129;-48
2022/04/08 12:13:36;;;;;;;10.90;2.55;;;7.90;99.90;;;;;;5011673;28;20117;-49
2022/04/08 12:16:08;;;;;;;7.13;1.85;;;7.80;99.90;;;;;;5010845;28;20025;-50
2022/04/08 12:18:34;;;;;;;9.10;2.22;;;7.80;99.90;;;;;;5009517;28;20453;-50
2022/04/08 12:21:05;;;;;;;9.98;1.98;;;7.80;99.90;;;;;;5010510;28;20034;-49
2022/04/08 12:23:30;;;;;;;9.25;2.00;;;8.20;99.90;;;;;;5011042;28;20292;-48
2022/04/08 12:26:03;;;;;;;6.97;1.50;;;8.50;99.90;;;;;;5012772;28;20124;-50
2022/04/08 12:28:31;;;;;;;8.27;1.20;;;8.90;99.90;;;;;;5010390;28;20393;-47
2022/04/08 12:30:57;;;;;;;6.25;1.40;;;9.30;99.90;;;;;;5012228;28;20552;-51
2022/04/08 12:33:23;;;;;;;3.80;1.00;;;9.20;99.90;;;;;;5011972;28;20034;-47
2022/04/08 12:35:49;;;;;;;3.58;1.00;;;9.40;99.90;;;;;;5010583;28;20042;-51
2022/04/08 12:38:19;;;;;;;6.00;1.10;;;9.60;99.90;;;;;;5009000;28;20061;-49
2022/04/08 12:40:49;;;;;;;3.97;0.82;;;9.80;99.90;;;;;;5012008;28;20042;-47
2022/04/08 12:43:15;;;;;;;4.20;1.00;;;9.90;99.90;;;;;;5010213;28;20137;-51
2022/04/08 12:45:41;;;;;;;5.15;1.00;;;9.70;99.90;;;;;;5011504;28;20072;-48
2022/04/08 12:48:07;;;;;;;3.58;0.90;;;9.80;99.90;;;;;;5001817;28;20053;-50
2022/04/08 12:50:33;;;;;;;2.88;0.98;;;10.10;99.90;;;;;;5009196;28;20038;-51
2022/04/08 12:53:00;;;;;;;4.75;1.30;;;10.30;99.90;;;;;;5011728;28;20048;-49